^^

..:: Storico WU ::..




Lo storico viene creato da WUnderground con i dati che la stazione Meteomincio invia al loro server. L' aggiornamento viene fatto ogni 5 minuti circa, tuttavia possono esserci intervalli pił ampi a causa di errori, interruzioni di servizio o problemi nell' invio tramite FTP.


Storico stazione MeteoMincio
Giorno Sommario per Giugno 22, 2022 Unità:  Inglese    Metrico   Entrambi
Giorno Settimana Mese Anno
  Max: Min: Media:
Temperatura: 86 °F 73.4 °F 78.3 °F
Dew Point: 73.4 °F 66.2 °F 69.8 °F
Umidità: 85% 61% 76%
Velocità vento: 6.2mph 0mph 2.9mph
Raffica: 10.6mph - -
Direzione- - SE
Pressione: 29.9 in 29.8 in -
Precipitazioni: 0 in    
 
 
Tabulato Dati per Giugno 22, 2022
Ora Temperatura Dew Point Pressione Direzione Velocità vento Raffica Umidità Intensità pioggia (oraria) Info solare Situazione
00:04 78.8 °F 68 °F 29.8 in NE 5 mph 6.8 mph 68% 0 in 0.00 W/m2 unknown
00:09 78.8 °F 68 °F 29.8 in ENE 5 mph 8.1 mph 69% 0 in 0.00 W/m2 unknown
00:14 78.8 °F 68 °F 29.8 in ENE 6.2 mph 10.6 mph 69% 0 in 0.00 W/m2 unknown
00:19 78.8 °F 68 °F 29.8 in ENE 6.2 mph 9.9 mph 70% 0 in 0.00 W/m2 unknown
00:24 78.8 °F 68 °F 29.8 in East 6.2 mph 9.3 mph 70% 0 in 0.00 W/m2 unknown
00:29 77 °F 68 °F 29.8 in ENE 5 mph 6.8 mph 70% 0 in 0.00 W/m2 unknown
00:34 77 °F 68 °F 29.8 in East 5 mph 6.8 mph 71% 0 in 0.00 W/m2 unknown
00:39 77 °F 68 °F 29.8 in East 3.1 mph 6.2 mph 71% 0 in 0.00 W/m2 unknown
00:44 77 °F 68 °F 29.8 in East 5 mph 6.8 mph 71% 0 in 0.00 W/m2 unknown
00:49 77 °F 68 °F 29.8 in East 5 mph 6.8 mph 71% 0 in 0.00 W/m2 unknown
00:54 77 °F 68 °F 29.8 in East 5 mph 6.8 mph 71% 0 in 0.00 W/m2 unknown
00:59 77 °F 68 °F 29.8 in East 3.1 mph 6.8 mph 71% 0 in 0.00 W/m2 unknown
01:04 77 °F 68 °F 29.8 in NE 1.2 mph 2.5 mph 71% 0 in 0.00 W/m2 unknown
01:09 77 °F 68 °F 29.8 in NE 1.2 mph 3.7 mph 71% 0 in 0.00 W/m2 unknown
01:14 77 °F 68 °F 29.8 in NE 1.2 mph 3.7 mph 71% 0 in 0.00 W/m2 unknown
01:19 77 °F 68 °F 29.8 in NNE 1.2 mph 3.7 mph 71% 0 in 0.00 W/m2 unknown
01:24 77 °F 68 °F 29.8 in NE 1.2 mph 3.1 mph 72% 0 in 0.00 W/m2 unknown
01:29 77 °F 68 °F 29.8 in Calm   1.9 mph 72% 0 in 0.00 W/m2 unknown
01:34 77 °F 66.2 °F 29.8 in Calm   2.5 mph 72% 0 in 0.00 W/m2 unknown
01:39 77 °F 66.2 °F 29.8 in East 1.2 mph 2.5 mph 72% 0 in 0.00 W/m2 unknown
01:44 77 °F 66.2 °F 29.8 in ENE 2.5 mph 5 mph 72% 0 in 0.00 W/m2 unknown
01:49 77 °F 66.2 °F 29.8 in ENE 2.5 mph 5 mph 72% 0 in 0.00 W/m2 unknown
01:54 77 °F 66.2 °F 29.8 in ENE 1.9 mph 5 mph 72% 0 in 0.00 W/m2 unknown
01:59 77 °F 66.2 °F 29.8 in ENE 1.9 mph 3.7 mph 72% 0 in 0.00 W/m2 unknown
02:04 77 °F 66.2 °F 29.8 in East 1.9 mph 3.7 mph 73% 0 in 0.00 W/m2 unknown
02:09 77 °F 66.2 °F 29.8 in East 1.9 mph 3.7 mph 74% 0 in 0.00 W/m2 unknown
02:14 75.2 °F 66.2 °F 29.8 in East 2.5 mph 5 mph 74% 0 in 0.00 W/m2 unknown
02:17 75.2 °F 66.2 °F 29.8 in ENE 3.1 mph 5 mph 74% 0 in 0.00 W/m2 unknown
02:24 75.2 °F 68 °F 29.8 in ENE 3.1 mph 5 mph 75% 0 in 0.00 W/m2 unknown
02:29 75.2 °F 68 °F 29.8 in NE 3.1 mph 5 mph 75% 0 in 0.00 W/m2 unknown
02:34 75.2 °F 68 °F 29.8 in NE 2.5 mph 3.7 mph 75% 0 in 0.00 W/m2 unknown
02:39 75.2 °F 68 °F 29.8 in NE 2.5 mph 3.7 mph 75% 0 in 0.00 W/m2 unknown
02:44 75.2 °F 68 °F 29.8 in NE 2.5 mph 3.7 mph 75% 0 in 0.00 W/m2 unknown
02:49 75.2 °F 68 °F 29.8 in NE 2.5 mph 3.7 mph 75% 0 in 0.00 W/m2 unknown
02:54 75.2 °F 68 °F 29.8 in NE 1.9 mph 3.7 mph 75% 0 in 0.00 W/m2 unknown
02:59 75.2 °F 68 °F 29.8 in NNE 1.2 mph 3.1 mph 75% 0 in 0.00 W/m2 unknown
03:04 75.2 °F 68 °F 29.8 in NNE 1.9 mph 3.7 mph 75% 0 in 0.00 W/m2 unknown
03:09 75.2 °F 68 °F 29.8 in NNE 1.9 mph 3.7 mph 75% 0 in 0.00 W/m2 unknown
03:14 75.2 °F 68 °F 29.8 in NE 1.9 mph 3.7 mph 75% 0 in 0.00 W/m2 unknown
03:19 75.2 °F 66.2 °F 29.8 in NE 1.9 mph 3.7 mph 75% 0 in 0.00 W/m2 unknown
03:21 75.2 °F 66.2 °F 29.8 in NNE 1.9 mph 3.7 mph 75% 0 in 0.00 W/m2 unknown
03:29 75.2 °F 66.2 °F 29.8 in NNE 1.9 mph 3.1 mph 75% 0 in 0.00 W/m2 unknown
03:34 75.2 °F 68 °F 29.8 in NNE 1.2 mph 2.5 mph 77% 0 in 0.00 W/m2 unknown
03:38 75.2 °F 66.2 °F 29.8 in Calm   1.9 mph 77% 0 in 0.00 W/m2 unknown
03:44 75.2 °F 68 °F 29.8 in NNE 0.6 mph 1.9 mph 77% 0 in 0.00 W/m2 unknown
03:49 75.2 °F 66.2 °F 29.8 in NNE 0.6 mph 2.5 mph 77% 0 in 0.00 W/m2 unknown
03:54 75.2 °F 68 °F 29.8 in NNE 0.6 mph 2.5 mph 78% 0 in 0.00 W/m2 unknown
03:58 75.2 °F 66.2 °F 29.8 in NNE 1.2 mph 2.5 mph 78% 0 in 0.00 W/m2 unknown
04:02 73.4 °F 66.2 °F 29.8 in East 0.6 mph 2.5 mph 78% 0 in 0.00 W/m2 unknown
04:08 73.4 °F 66.2 °F 29.8 in ESE 1.2 mph 2.5 mph 78% 0 in 0.00 W/m2 unknown
04:14 73.4 °F 66.2 °F 29.8 in SE 1.9 mph 2.5 mph 78% 0 in 0.00 W/m2 unknown
04:18 73.4 °F 66.2 °F 29.8 in SE 1.2 mph 2.5 mph 77% 0 in 0.00 W/m2 unknown
04:24 73.4 °F 66.2 °F 29.8 in South 1.2 mph 2.5 mph 78% 0 in 0.00 W/m2 unknown
04:28 73.4 °F 66.2 °F 29.8 in South 1.2 mph 2.5 mph 78% 0 in 0.00 W/m2 unknown
04:34 73.4 °F 68 °F 29.8 in SSW 1.2 mph 3.1 mph 79% 0 in 0.00 W/m2 unknown
04:38 75.2 °F 68 °F 29.8 in SSW 1.2 mph 3.1 mph 79% 0 in 0.00 W/m2 unknown
04:44 75.2 °F 68 °F 29.9 in SSE 1.2 mph 2.5 mph 79% 0 in 0.00 W/m2 unknown
04:48 75.2 °F 68 °F 29.9 in ESE 1.2 mph 2.5 mph 78% 0 in 0.00 W/m2 unknown
04:54 75.2 °F 68 °F 29.9 in ESE 3.1 mph 5 mph 79% 0 in 0.00 W/m2 unknown
04:58 75.2 °F 68 °F 29.9 in East 3.1 mph 5 mph 80% 0 in 0.00 W/m2 unknown
05:03 75.2 °F 68 °F 29.9 in ENE 3.1 mph 4.3 mph 80% 0 in 0.00 W/m2 unknown
05:09 75.2 °F 68 °F 29.9 in ENE 3.7 mph 5 mph 81% 0 in 0.00 W/m2 unknown
05:11 75.2 °F 68 °F 29.8 in NE 3.7 mph 6.8 mph 81% 0 in 0.00 W/m2 unknown
05:16 75.2 °F 68 °F 29.8 in NE 3.7 mph 6.8 mph 81% 0 in 0.00 W/m2 unknown
05:24 75.2 °F 68 °F 29.8 in ENE 4.3 mph 6.8 mph 83% 0 in 0.00 W/m2 unknown
05:29 73.4 °F 68 °F 29.8 in East 3.7 mph 6.8 mph 83% 0 in 0.00 W/m2 unknown
05:34 73.4 °F 68 °F 29.8 in East 3.1 mph 5 mph 83% 0 in 0.00 W/m2 unknown
05:39 73.4 °F 68 °F 29.8 in ESE 2.5 mph 3.7 mph 83% 0 in 0.00 W/m2 unknown
05:44 73.4 °F 68 °F 29.8 in ESE 2.5 mph 3.7 mph 83% 0 in 0.00 W/m2 unknown
05:49 73.4 °F 68 °F 29.8 in ESE 1.9 mph 3.7 mph 83% 0 in 0.00 W/m2 unknown
05:54 73.4 °F 68 °F 29.8 in East 2.5 mph 5 mph 83% 0 in 5.00 W/m2 unknown
05:59 73.4 °F 68 °F 29.8 in East 3.7 mph 6.2 mph 84% 0 in 7.00 W/m2 unknown
06:04 73.4 °F 68 °F 29.8 in East 5.6 mph 8.1 mph 84% 0 in 11.00 W/m2 unknown
06:08 73.4 °F 68 °F 29.8 in East 6.2 mph 8.1 mph 84% 0 in 19.00 W/m2 unknown
06:14 73.4 °F 69.8 °F 29.8 in East 6.2 mph 9.3 mph 85% 0 in 26.00 W/m2 unknown
06:17 73.4 °F 69.8 °F 29.8 in East 6.2 mph 9.3 mph 85% 0 in 32.00 W/m2 unknown
06:21 75.2 °F 69.8 °F 29.8 in East 5 mph 9.3 mph 84% 0 in 35.00 W/m2 unknown
06:29 75.2 °F 69.8 °F 29.8 in ESE 5 mph 8.7 mph 83% 0 in 54.00 W/m2 unknown
06:34 75.2 °F 69.8 °F 29.8 in ESE 3.1 mph 6.2 mph 83% 0 in 77.00 W/m2 unknown
06:39 75.2 °F 69.8 °F 29.8 in East 4.3 mph 6.8 mph 82% 0 in 86.00 W/m2 unknown
06:44 75.2 °F 68 °F 29.8 in ESE 4.3 mph 6.8 mph 81% 0 in 86.00 W/m2 unknown
06:49 75.2 °F 68 °F 29.8 in East 5 mph 6.8 mph 80% 0 in 74.00 W/m2 unknown
06:54 75.2 °F 68 °F 29.8 in ESE 5 mph 6.8 mph 80% 0 in 70.00 W/m2 unknown
06:59 75.2 °F 69.8 °F 29.8 in ESE 5 mph 6.8 mph 81% 0 in 70.00 W/m2 unknown
07:04 75.2 °F 68 °F 29.8 in ESE 5 mph 6.8 mph 81% 0 in 105.00 W/m2 unknown
07:09 75.2 °F 69.8 °F 29.8 in ESE 3.1 mph 5 mph 82% 0 in 155.00 W/m2 unknown
07:11 75.2 °F 69.8 °F 29.8 in East 2.5 mph 5 mph 82% 0 in 167.00 W/m2 unknown
07:16 75.2 °F 69.8 °F 29.8 in East 2.5 mph 3.7 mph 82% 0 in 167.00 W/m2 unknown
07:24 77 °F 69.8 °F 29.9 in ESE 3.1 mph 6.8 mph 82% 0 in 167.00 W/m2 unknown
07:29 77 °F 69.8 °F 29.9 in ESE 5 mph 6.8 mph 82% 0 in 123.00 W/m2 unknown
07:34 75.2 °F 69.8 °F 29.9 in East 5 mph 6.8 mph 82% 0 in 123.00 W/m2 unknown
07:39 77 °F 69.8 °F 29.9 in SE 5 mph 6.8 mph 82% 0 in 169.00 W/m2 unknown
07:44 77 °F 69.8 °F 29.9 in SE 3.1 mph 6.8 mph 82% 0 in 127.00 W/m2 unknown
07:49 75.2 °F 69.8 °F 29.9 in East 4.3 mph 6.8 mph 82% 0 in 107.00 W/m2 unknown
07:54 75.2 °F 69.8 °F 29.9 in ESE 4.3 mph 6.8 mph 82% 0 in 195.00 W/m2 unknown
07:59 77 °F 69.8 °F 29.9 in ESE 5 mph 6.8 mph 82% 0 in 251.00 W/m2 unknown
08:04 77 °F 69.8 °F 29.9 in SE 3.1 mph 5 mph 82% 0 in 241.00 W/m2 unknown
08:09 77 °F 69.8 °F 29.9 in ESE 3.1 mph 5 mph 81% 0 in 227.00 W/m2 unknown
08:14 77 °F 69.8 °F 29.9 in ESE 2.5 mph 3.7 mph 81% 0 in 211.00 W/m2 unknown
08:19 77 °F 69.8 °F 29.9 in East 1.9 mph 5 mph 80% 0 in 232.00 W/m2 unknown
08:24 77 °F 69.8 °F 29.9 in East 2.5 mph 5 mph 80% 0 in 220.00 W/m2 unknown
08:29 77 °F 69.8 °F 29.9 in East 2.5 mph 5 mph 79% 0 in 227.00 W/m2 unknown
08:34 77 °F 69.8 °F 29.9 in ENE 3.1 mph 5 mph 78% 0 in 197.00 W/m2 unknown
08:39 77 °F 69.8 °F 29.9 in ENE 3.1 mph 5 mph 79% 0 in 149.00 W/m2 unknown
08:44 77 °F 69.8 °F 29.9 in East 3.1 mph 5 mph 79% 0 in 109.00 W/m2 unknown
08:48 77 °F 69.8 °F 29.9 in ENE 3.1 mph 6.2 mph 80% 0 in 128.00 W/m2 unknown
08:54 77 °F 69.8 °F 29.9 in ENE 4.3 mph 6.2 mph 79% 0 in 178.00 W/m2 unknown
08:59 77 °F 69.8 °F 29.9 in East 4.3 mph 6.2 mph 78% 0 in 181.00 W/m2 unknown
09:04 77 °F 69.8 °F 29.9 in East 5 mph 6.2 mph 78% 0 in 262.00 W/m2 unknown
09:09 78.8 °F 69.8 °F 29.9 in ENE 3.7 mph 5 mph 78% 0 in 346.00 W/m2 unknown
09:14 78.8 °F 69.8 °F 29.9 in ENE 3.7 mph 5 mph 77% 0 in 346.00 W/m2 unknown
09:19 78.8 °F 69.8 °F 29.9 in NE 3.1 mph 5 mph 77% 0 in 230.00 W/m2 unknown
09:23 78.8 °F 69.8 °F 29.9 in NE 3.1 mph 5 mph 77% 0 in 130.00 W/m2 unknown
09:29 78.8 °F 69.8 °F 29.9 in NE 3.1 mph 5 mph 77% 0 in 95.00 W/m2 unknown
09:33 78.8 °F 69.8 °F 29.9 in NNE 3.1 mph 5 mph 78% 0 in 74.00 W/m2 unknown
09:39 77 °F 71.6 °F 29.9 in NNE 3.7 mph 6.8 mph 80% 0 in 56.00 W/m2 unknown
09:44 77 °F 71.6 °F 29.9 in NNE 4.3 mph 6.8 mph 82% 0 in 69.00 W/m2 unknown
09:49 77 °F 71.6 °F 29.9 in NNE 4.3 mph 6.8 mph 83% 0 in 105.00 W/m2 unknown
09:54 77 °F 71.6 °F 29.9 in NNE 3.1 mph 6.8 mph 84% 0 in 130.00 W/m2 unknown
09:59 77 °F 71.6 °F 29.9 in NE 3.7 mph 5 mph 84% 0 in 130.00 W/m2 unknown
10:04 77 °F 71.6 °F 29.9 in ENE 3.7 mph 5 mph 84% 0 in 120.00 W/m2 unknown
10:09 77 °F 71.6 °F 29.9 in ENE 3.7 mph 6.8 mph 84% 0 in 155.00 W/m2 unknown
10:14 77 °F 71.6 °F 29.9 in NE 3.1 mph 6.8 mph 84% 0 in 171.00 W/m2 unknown
10:19 77 °F 71.6 °F 29.9 in NE 4.3 mph 6.8 mph 84% 0 in 183.00 W/m2 unknown
10:24 77 °F 71.6 °F 29.9 in NE 4.3 mph 6.8 mph 83% 0 in 183.00 W/m2 unknown
10:29 77 °F 71.6 °F 29.9 in North 3.1 mph 5 mph 83% 0 in 186.00 W/m2 unknown
10:34 77 °F 71.6 °F 29.9 in NE 1.9 mph 5 mph 82% 0 in 183.00 W/m2 unknown
10:39 77 °F 71.6 °F 29.9 in NE 1.9 mph 3.7 mph 82% 0 in 158.00 W/m2 unknown
10:44 77 °F 69.8 °F 29.9 in ENE 3.1 mph 3.7 mph 81% 0 in 176.00 W/m2 unknown
10:48 77 °F 69.8 °F 29.9 in ENE 3.1 mph 3.7 mph 79% 0 in 176.00 W/m2 unknown
10:54 77 °F 69.8 °F 29.9 in ENE 3.1 mph 3.7 mph 79% 0 in 169.00 W/m2 unknown
10:59 77 °F 69.8 °F 29.9 in ENE 3.7 mph 5 mph 80% 0 in 264.00 W/m2 unknown
11:04 77 °F 69.8 °F 29.9 in ENE 3.7 mph 6.2 mph 81% 0 in 341.00 W/m2 unknown
11:09 77 °F 69.8 °F 29.9 in ENE 4.3 mph 6.8 mph 80% 0 in 355.00 W/m2 unknown
11:14 78.8 °F 69.8 °F 29.9 in ENE 5.6 mph 6.8 mph 79% 0 in 466.00 W/m2 unknown
11:19 78.8 °F 69.8 °F 29.9 in ENE 5.6 mph 6.8 mph 78% 0 in 628.00 W/m2 unknown
11:24 78.8 °F 69.8 °F 29.9 in ENE 5 mph 6.8 mph 77% 0 in 566.00 W/m2 unknown
11:28 78.8 °F 69.8 °F 29.9 in East 5 mph 6.8 mph 75% 0 in 494.00 W/m2 unknown
11:34 78.8 °F 71.6 °F 29.9 in East 5.6 mph 6.8 mph 75% 0 in 506.00 W/m2 unknown
11:39 80.6 °F 71.6 °F 29.9 in East 5 mph 6.8 mph 74% 0 in 563.00 W/m2 unknown
11:44 80.6 °F 71.6 °F 29.9 in East 3.1 mph 5 mph 74% 0 in 515.00 W/m2 unknown
11:49 80.6 °F 71.6 °F 29.9 in East 2.5 mph 5 mph 73% 0 in 464.00 W/m2 unknown
11:54 80.6 °F 69.8 °F 29.9 in ESE 3.1 mph 5 mph 72% 0 in 475.00 W/m2 unknown
11:59 80.6 °F 69.8 °F 29.9 in SE 3.1 mph 5 mph 72% 0 in 438.00 W/m2 unknown
12:04 80.6 °F 69.8 °F 29.9 in SSE 2.5 mph 5 mph 72% 0 in 262.00 W/m2 unknown
12:09 80.6 °F 69.8 °F 29.9 in ESE 1.9 mph 3.7 mph 71% 0 in 199.00 W/m2 unknown
12:14 80.6 °F 69.8 °F 29.9 in ENE 3.1 mph 6.8 mph 72% 0 in 311.00 W/m2 unknown
12:19 80.6 °F 69.8 °F 29.9 in East 3.7 mph 6.8 mph 72% 0 in 350.00 W/m2 unknown
12:23 80.6 °F 69.8 °F 29.9 in ENE 3.1 mph 6.8 mph 71% 0 in 446.00 W/m2 unknown
12:29 82.4 °F 71.6 °F 29.9 in East 3.1 mph 6.8 mph 70% 0 in 847.00 W/m2 unknown
12:34 82.4 °F 71.6 °F 29.9 in NE 3.7 mph 6.8 mph 70% 0 in 942.00 W/m2 unknown
12:39 82.4 °F 71.6 °F 29.9 in East 4.3 mph 6.8 mph 69% 0 in 925.00 W/m2 unknown
12:44 82.4 °F 69.8 °F 29.8 in SSE 3.1 mph 6.2 mph 67% 0 in 392.00 W/m2 unknown
12:49 82.4 °F 69.8 °F 29.8 in ESE 3.1 mph 8.1 mph 68% 0 in 392.00 W/m2 unknown
12:54 82.4 °F 69.8 °F 29.8 in ESE 3.7 mph 8.1 mph 67% 0 in 371.00 W/m2 unknown
12:59 80.6 °F 69.8 °F 29.9 in SSE 3.1 mph 5.6 mph 68% 0 in 371.00 W/m2 unknown
13:04 80.6 °F 69.8 °F 29.9 in SSE 3.1 mph 6.2 mph 69% 0 in 408.00 W/m2 unknown
13:09 82.4 °F 69.8 °F 29.9 in SE 3.1 mph 6.2 mph 68% 0 in 499.00 W/m2 unknown
13:14 82.4 °F 69.8 °F 29.9 in East 3.1 mph 6.2 mph 67% 0 in 355.00 W/m2 unknown
13:19 82.4 °F 69.8 °F 29.9 in East 3.1 mph 6.2 mph 67% 0 in 355.00 W/m2 unknown
13:24 80.6 °F 69.8 °F 29.9 in East 4.3 mph 6.2 mph 69% 0 in 264.00 W/m2 unknown
13:29 80.6 °F 69.8 °F 29.9 in ESE 5 mph 5.6 mph 69% 0 in 367.00 W/m2 unknown
13:34 82.4 °F 69.8 °F 29.9 in South 5 mph 6.2 mph 69% 0 in 759.00 W/m2 unknown
13:38 82.4 °F 71.6 °F 29.9 in ESE 5 mph 6.2 mph 68% 0 in 868.00 W/m2 unknown
13:40 82.4 °F 71.6 °F 29.9 in East 3.7 mph 5 mph 68% 0 in 868.00 W/m2 unknown
13:49 84.2 °F 71.6 °F 29.9 in ESE 4.3 mph 6.8 mph 68% 0 in 868.00 W/m2 unknown
13:54 84.2 °F 69.8 °F 29.9 in ESE 5 mph 6.8 mph 66% 0 in 529.00 W/m2 unknown
13:59 84.2 °F 69.8 °F 29.9 in East 5 mph 6.8 mph 66% 0 in 838.00 W/m2 unknown
14:04 84.2 °F 71.6 °F 29.9 in East 5 mph 6.8 mph 66% 0 in 1034.00 W/m2 unknown
14:09 86 °F 71.6 °F 29.9 in ENE 3.1 mph 8.1 mph 66% 0 in 1034.00 W/m2 unknown
14:14 86 °F 71.6 °F 29.9 in East 5.6 mph 8.1 mph 64% 0 in 1011.00 W/m2 unknown
14:19 86 °F 69.8 °F 29.9 in East 5.6 mph 8.1 mph 62% 0 in 916.00 W/m2 unknown
14:23 86 °F 69.8 °F 29.9 in ESE 5.6 mph 10.6 mph 61% 0 in 889.00 W/m2 unknown
14:29 84.2 °F 69.8 °F 29.9 in East 6.2 mph 10.6 mph 62% 0 in 432.00 W/m2 unknown
14:34 84.2 °F 69.8 °F 29.8 in East 5 mph 9.9 mph 62% 0 in 350.00 W/m2 unknown
14:39 84.2 °F 69.8 °F 29.8 in ESE 4.3 mph 8.1 mph 64% 0 in 272.00 W/m2 unknown
14:44 84.2 °F 69.8 °F 29.8 in ESE 3.7 mph 6.8 mph 64% 0 in 251.00 W/m2 unknown
14:49 82.4 °F 69.8 °F 29.8 in ESE 3.1 mph 5 mph 64% 0 in 366.00 W/m2 unknown
14:54 82.4 °F 69.8 °F 29.9 in ESE 3.1 mph 6.2 mph 66% 0 in 357.00 W/m2 unknown
14:59 82.4 °F 69.8 °F 29.8 in East 3.7 mph 6.2 mph 67% 0 in 243.00 W/m2 unknown
15:04 82.4 °F 69.8 °F 29.8 in East 3.1 mph 6.2 mph 67% 0 in 283.00 W/m2 unknown
15:09 82.4 °F 69.8 °F 29.8 in ESE 3.1 mph 3.7 mph 65% 0 in 346.00 W/m2 unknown
15:14 84.2 °F 69.8 °F 29.8 in SE 2.5 mph 3.7 mph 65% 0 in 396.00 W/m2 unknown
15:19 84.2 °F 71.6 °F 29.8 in East 2.5 mph 3.7 mph 65% 0 in 367.00 W/m2 unknown
15:24 84.2 °F 69.8 °F 29.9 in ENE 3.1 mph 3.7 mph 65% 0 in 253.00 W/m2 unknown
15:29 84.2 °F 71.6 °F 29.9 in ENE 3.7 mph 5 mph 67% 0 in 246.00 W/m2 unknown
15:34 82.4 °F 71.6 °F 29.9 in East 3.7 mph 5 mph 68% 0 in 239.00 W/m2 unknown
15:39 82.4 °F 71.6 °F 29.9 in East 3.1 mph 5 mph 68% 0 in 230.00 W/m2 unknown
15:44 82.4 °F 69.8 °F 29.9 in East 3.1 mph 5 mph 67% 0 in 192.00 W/m2 unknown
15:49 82.4 °F 71.6 °F 29.9 in East 2.5 mph 5 mph 68% 0 in 178.00 W/m2 unknown
15:54 82.4 °F 71.6 °F 29.9 in ESE 2.5 mph 3.7 mph 70% 0 in 153.00 W/m2 unknown
15:59 82.4 °F 71.6 °F 29.9 in East 2.5 mph 3.7 mph 68% 0 in 139.00 W/m2 unknown
16:04 82.4 °F 71.6 °F 29.9 in ESE 2.5 mph 3.7 mph 68% 0 in 128.00 W/m2 unknown
16:09 82.4 °F 69.8 °F 29.9 in East 1.9 mph 3.1 mph 68% 0 in 120.00 W/m2 unknown
16:14 82.4 °F 71.6 °F 29.9 in East 3.1 mph 6.8 mph 68% 0 in 120.00 W/m2 unknown
16:19 82.4 °F 71.6 °F 29.8 in East 3.7 mph 6.8 mph 70% 0 in 93.00 W/m2 unknown
16:24 82.4 °F 71.6 °F 29.8 in East 3.1 mph 6.8 mph 71% 0 in 97.00 W/m2 unknown
16:29 82.4 °F 71.6 °F 29.8 in ENE 3.7 mph 6.2 mph 71% 0 in 120.00 W/m2 unknown
16:34 82.4 °F 71.6 °F 29.8 in ENE 5 mph 6.8 mph 71% 0 in 134.00 W/m2 unknown
16:39 82.4 °F 71.6 °F 29.8 in ENE 5 mph 6.8 mph 70% 0 in 144.00 W/m2 unknown
16:44 82.4 °F 69.8 °F 29.8 in North 3.1 mph 6.8 mph 69% 0 in 137.00 W/m2 unknown
16:49 82.4 °F 69.8 °F 29.8 in NE 1.2 mph 3.7 mph 67% 0 in 125.00 W/m2 unknown
16:54 82.4 °F 71.6 °F 29.8 in SE 1.9 mph 3.7 mph 69% 0 in 125.00 W/m2 unknown
16:59 82.4 °F 71.6 °F 29.8 in ESE 1.9 mph 3.7 mph 71% 0 in 91.00 W/m2 unknown
17:04 82.4 °F 71.6 °F 29.8 in SE 1.2 mph 3.1 mph 71% 0 in 86.00 W/m2 unknown
17:09 82.4 °F 71.6 °F 29.8 in East 1.2 mph 2.5 mph 71% 0 in 109.00 W/m2 unknown
17:14 82.4 °F 71.6 °F 29.8 in ENE 1.9 mph 2.5 mph 70% 0 in 109.00 W/m2 unknown
17:19 82.4 °F 69.8 °F 29.8 in ENE 1.9 mph 2.5 mph 68% 0 in 109.00 W/m2 unknown
17:24 82.4 °F 69.8 °F 29.8 in ESE 1.9 mph 2.5 mph 68% 0 in 109.00 W/m2 unknown
17:29 82.4 °F 71.6 °F 29.8 in East 1.2 mph 3.1 mph 69% 0 in 114.00 W/m2 unknown
17:34 82.4 °F 71.6 °F 29.8 in East 1.2 mph 3.7 mph 72% 0 in 114.00 W/m2 unknown
17:39 82.4 °F 71.6 °F 29.8 in East 1.2 mph 3.7 mph 73% 0 in 98.00 W/m2 unknown
17:44 82.4 °F 71.6 °F 29.8 in East 1.2 mph 3.7 mph 73% 0 in 72.00 W/m2 unknown
17:49 82.4 °F 71.6 °F 29.8 in ENE 1.2 mph 3.7 mph 73% 0 in 53.00 W/m2 unknown
17:54 82.4 °F 71.6 °F 29.8 in ENE 1.2 mph 3.1 mph 72% 0 in 42.00 W/m2 unknown
17:59 82.4 °F 71.6 °F 29.8 in ENE 1.2 mph 2.5 mph 71% 0 in 35.00 W/m2 unknown
18:04 82.4 °F 71.6 °F 29.8 in NNE 1.2 mph 2.5 mph 71% 0 in 30.00 W/m2 unknown
18:09 82.4 °F 71.6 °F 29.8 in NNE 2.5 mph 3.7 mph 70% 0 in 33.00 W/m2 unknown
18:14 82.4 °F 71.6 °F 29.8 in NNE 3.1 mph 5 mph 70% 0 in 44.00 W/m2 unknown
18:19 82.4 °F 71.6 °F 29.8 in NNE 3.1 mph 5 mph 70% 0 in 49.00 W/m2 unknown
18:24 82.4 °F 71.6 °F 29.8 in NE 3.1 mph 5 mph 70% 0 in 51.00 W/m2 unknown
18:29 82.4 °F 71.6 °F 29.8 in East 3.1 mph 5 mph 71% 0 in 47.00 W/m2 unknown
18:34 82.4 °F 71.6 °F 29.8 in SE 1.9 mph 3.7 mph 73% 0 in 37.00 W/m2 unknown
18:39 80.6 °F 71.6 °F 29.8 in East 2.5 mph 3.7 mph 75% 0 in 37.00 W/m2 unknown
18:44 80.6 °F 71.6 °F 29.8 in ESE 1.2 mph 3.7 mph 76% 0 in 25.00 W/m2 unknown
18:49 80.6 °F 71.6 °F 29.8 in SE 1.2 mph 2.5 mph 76% 0 in 19.00 W/m2 unknown
18:54 80.6 °F 71.6 °F 29.8 in SE 1.2 mph 1.9 mph 75% 0 in 16.00 W/m2 unknown
18:59 80.6 °F 71.6 °F 29.8 in SSE 0.6 mph 2.5 mph 75% 0 in 18.00 W/m2 unknown
19:04 80.6 °F 71.6 °F 29.8 in SW 1.2 mph 2.5 mph 75% 0 in 21.00 W/m2 unknown
19:09 80.6 °F 71.6 °F 29.8 in WSW 1.2 mph 3.7 mph 76% 0 in 25.00 W/m2 unknown
19:14 80.6 °F 71.6 °F 29.8 in West 1.9 mph 3.7 mph 76% 0 in 26.00 W/m2 unknown
19:16 80.6 °F 71.6 °F 29.8 in WSW 2.5 mph 3.7 mph 77% 0 in 35.00 W/m2 unknown
19:21 80.6 °F 71.6 °F 29.8 in WSW 3.1 mph 3.7 mph 78% 0 in 32.00 W/m2 unknown
19:29 80.6 °F 71.6 °F 29.8 in West 3.1 mph 3.7 mph 80% 0 in 32.00 W/m2 unknown
19:34 78.8 °F 73.4 °F 29.8 in West 1.9 mph 3.7 mph 80% 0 in 30.00 W/m2 unknown
19:39 78.8 °F 73.4 °F 29.8 in WNW 2.5 mph 3.7 mph 80% 0 in 32.00 W/m2 unknown
19:44 78.8 °F 71.6 °F 29.8 in WNW 3.1 mph 3.7 mph 79% 0 in 30.00 W/m2 unknown
19:49 78.8 °F 71.6 °F 29.8 in WNW 3.7 mph 5 mph 78% 0 in 39.00 W/m2 unknown
19:54 78.8 °F 71.6 °F 29.8 in WNW 3.7 mph 5 mph 78% 0 in 69.00 W/m2 unknown
19:59 78.8 °F 71.6 °F 29.8 in West 3.7 mph 5 mph 78% 0 in 69.00 W/m2 unknown
20:04 78.8 °F 71.6 °F 29.8 in West 3.1 mph 3.7 mph 78% 0 in 51.00 W/m2 unknown
20:09 78.8 °F 71.6 °F 29.8 in SW 1.9 mph 3.1 mph 78% 0 in 40.00 W/m2 unknown
20:14 78.8 °F 71.6 °F 29.8 in SW 1.9 mph 2.5 mph 78% 0 in 40.00 W/m2 unknown
20:19 78.8 °F 71.6 °F 29.8 in SSW 1.9 mph 2.5 mph 78% 0 in 40.00 W/m2 unknown
20:24 78.8 °F 71.6 °F 29.8 in South 1.9 mph 2.5 mph 79% 0 in 40.00 W/m2 unknown
20:29 78.8 °F 71.6 °F 29.8 in South 1.9 mph 3.7 mph 79% 0 in 35.00 W/m2 unknown
20:34 78.8 °F 71.6 °F 29.8 in South 1.9 mph 3.7 mph 79% 0 in 30.00 W/m2 unknown
20:39 78.8 °F 71.6 °F 29.8 in South 1.2 mph 3.1 mph 79% 0 in 26.00 W/m2 unknown
20:44 78.8 °F 71.6 °F 29.8 in SSW 1.2 mph 2.5 mph 78% 0 in 26.00 W/m2 unknown
20:49 78.8 °F 71.6 °F 29.8 in WNW 1.2 mph 2.5 mph 79% 0 in 25.00 W/m2 unknown
20:54 78.8 °F 71.6 °F 29.8 in NW 1.9 mph 2.5 mph 79% 0 in 18.00 W/m2 unknown
20:59 78.8 °F 71.6 °F 29.8 in NNW 1.9 mph 2.5 mph 80% 0 in 11.00 W/m2 unknown
21:04 78.8 °F 71.6 °F 29.8 in NNW 1.9 mph 3.7 mph 80% 0 in 0.00 W/m2 unknown
21:09 78.8 °F 71.6 °F 29.8 in NNW 2.5 mph 5 mph 80% 0 in 0.00 W/m2 unknown
21:14 78.8 °F 71.6 °F 29.8 in NNW 3.1 mph 5 mph 80% 0 in 0.00 W/m2 unknown
21:19 78.8 °F 71.6 °F 29.8 in NNW 3.1 mph 5 mph 80% 0 in 0.00 W/m2 unknown
21:24 78.8 °F 71.6 °F 29.8 in NNW 3.7 mph 5 mph 80% 0 in 0.00 W/m2 unknown
21:29 77 °F 71.6 °F 29.8 in North 3.7 mph 5 mph 80% 0 in 0.00 W/m2 unknown
21:34 77 °F 71.6 °F 29.8 in North 3.1 mph 5 mph 80% 0 in 0.00 W/m2 unknown
21:39 77 °F 71.6 °F 29.8 in North 3.1 mph 3.7 mph 80% 0 in 0.00 W/m2 unknown
21:44 77 °F 69.8 °F 29.8 in North 1.9 mph 3.7 mph 79% 0 in 0.00 W/m2 unknown
21:49 77 °F 69.8 °F 29.8 in NNW 1.9 mph 3.1 mph 79% 0 in 0.00 W/m2 unknown
21:54 77 °F 69.8 °F 29.8 in NNW 1.2 mph 2.5 mph 79% 0 in 0.00 W/m2 unknown
21:59 77 °F 69.8 °F 29.8 in NW 1.2 mph 2.5 mph 79% 0 in 0.00 W/m2 unknown
22:04 77 °F 69.8 °F 29.8 in Calm   1.9 mph 81% 0 in 0.00 W/m2 unknown
22:09 77 °F 69.8 °F 29.8 in Calm   1.2 mph 82% 0 in 0.00 W/m2 unknown
22:14 77 °F 69.8 °F 29.8 in NW 0.6 mph 2.5 mph 83% 0 in 0.00 W/m2 unknown
22:19 75.2 °F 69.8 °F 29.8 in WNW 1.9 mph 3.7 mph 83% 0 in 0.00 W/m2 unknown
22:24 75.2 °F 69.8 °F 29.8 in NW 1.9 mph 3.7 mph 83% 0 in 0.00 W/m2 unknown
22:29 75.2 °F 69.8 °F 29.8 in WNW 2.5 mph 3.7 mph 83% 0 in 0.00 W/m2 unknown
22:34 75.2 °F 69.8 °F 29.8 in NW 1.9 mph 3.7 mph 83% 0 in 0.00 W/m2 unknown
22:39 75.2 °F 69.8 °F 29.8 in NW 1.9 mph 3.1 mph 83% 0 in 0.00 W/m2 unknown
22:44 75.2 °F 69.8 °F 29.8 in NW 1.2 mph 2.5 mph 83% 0 in 0.00 W/m2 unknown
22:49 75.2 °F 69.8 °F 29.8 in NW 1.9 mph 3.1 mph 84% 0 in 0.00 W/m2 unknown
22:54 75.2 °F 69.8 °F 29.8 in WNW 1.9 mph 3.7 mph 84% 0 in 0.00 W/m2 unknown
22:59 75.2 °F 69.8 °F 29.8 in WNW 1.2 mph 3.7 mph 84% 0 in 0.00 W/m2 unknown
23:04 75.2 °F 69.8 °F 29.8 in WNW 2.5 mph 3.7 mph 85% 0 in 0.00 W/m2 unknown
23:09 75.2 °F 69.8 °F 29.8 in WNW 2.5 mph 3.7 mph 85% 0 in 0.00 W/m2 unknown
23:13 75.2 °F 69.8 °F 29.8 in WNW 2.5 mph 3.7 mph 85% 0 in 0.00 W/m2 unknown
23:19 75.2 °F 69.8 °F 29.8 in WNW 2.5 mph 3.7 mph 85% 0 in 0.00 W/m2 unknown
23:24 73.4 °F 69.8 °F 29.8 in WNW 2.5 mph 3.7 mph 84% 0 in 0.00 W/m2 unknown
23:29 73.4 °F 69.8 °F 29.8 in WNW 2.5 mph 3.7 mph 84% 0 in 0.00 W/m2 unknown
23:34 73.4 °F 69.8 °F 29.8 in WNW 3.1 mph 3.7 mph 85% 0 in 0.00 W/m2 unknown
23:39 73.4 °F 69.8 °F 29.8 in West 2.5 mph 3.7 mph 85% 0 in 0.00 W/m2 unknown
23:44 73.4 °F 69.8 °F 29.8 in WNW 1.9 mph 3.7 mph 85% 0 in 0.00 W/m2 unknown
23:49 73.4 °F 69.8 °F 29.8 in WNW 1.9 mph 3.7 mph 85% 0 in 0.00 W/m2 unknown
23:54 73.4 °F 69.8 °F 29.8 in WNW 2.5 mph 3.7 mph 85% 0 in 0.00 W/m2 unknown
23:59 73.4 °F 69.8 °F 29.8 in NW 2.5 mph 3.7 mph 85% 0 in 0.00 W/m2 unknown
Stazione Meteorologica MeteoMincio Rivalta s/M (MN)
Con i complimenti di Weather Underground - 4 mb



GLOSSARIO METEOROLOGICO
Umidità Relativa
E' definita come il rapporto tra la pressione di vapore effettiva (e) e la pressione di vapore saturo (es), normalmente espresso in percento. E' la proprietà del vapore acqueo più frequentemente osservata, e può essere utilizzata per ricavare le altre variabili. Viene espressa in %. Questo rapporto viene chiamato anche stato igrometrico dell'aria. Valori inferiori al 30% denotano la presenza di aria secca o poco umida, mentre valori superiori al 70-80% sono indice di una notevole umidità (ad esempio in caso di pioggia o di nebbia).
Share

Non seguire questo link o sarai bannato dal sito!